Impacts TAF Board INFO
FOR SITUATIONAL AWARENESS. NOT TO BE USED FOR FLIGHT PLANNING PURPOSES.
IDs:

KMSP - Minneapolis-St Paul, MN, US

Issued at 1141 UTC 14 Dec 2017
Updated at 1452 UTC 14 Dec 2017
Potential Impact None Slight Moderate High
Time1353Z 14/15Z 14/16Z 14/17Z 14/18Z 14/19Z 14/20Z 14/21Z 14/22Z 14/23Z 15/00Z 15/01Z 15/02Z 15/03Z>>
Type OBS PRVL PRVL PRVL PRVL PRVL PRVL PRVL PRVL PRVL PRVL PRVL PRVL PRVL
VIS 10 >6 >6 >6 >6 >6 >6 >6 >6 >6 >6 >6 >6 >6
CIG 28 25 25 25 25 15 15 15 15 20 20 20 20 20
Cover BKN OVC OVC OVC OVC OVC OVC OVC OVC OVC OVC OVC OVC OVC
FltCat MVFR MVFR MVFR MVFR MVFR MVFR MVFR MVFR MVFR MVFR MVFR MVFR MVFR MVFR
WX -- -- -- -- -- -SN -SN -SN -SN -- -- -- -- --
WDir VRB 270 270 270 270 290 290 290 290 300 300 300 300 300
WSpd 0 4 4 4 4 9 9 9 9 9 9 9 9 9
WGst -- -- -- -- -- -- -- -- -- -- -- -- -- --

Raw TAF
KMSP 141141Z 1412/1518 31003KT P6SM OVC035
  FM141400 27004KT P6SM OVC025
  FM141900 29009KT P6SM -SN OVC015
  FM142300 30009KT P6SM OVC020
  FM150800 29005KT P6SM BKN035


Raw METAR
KMSP 141353Z 00000KT 10SM BKN028 M09/M11 A3003 RMK AO2 SLP184 T10891111
KMSP 141253Z 27003KT 10SM FEW033 M08/M10 A3003 RMK AO2 SLP183 T10831100
KMSP 141153Z 28004KT 10SM BKN033 M08/M10 A3001 RMK AO2 SLP177 4/002 70001 T10831100 11067 21083 53001

METAR Board
Radar Display
Forecast Discussion

FOR SITUATIONAL AWARENESS. NOT TO BE USED FOR FLIGHT PLANNING PURPOSES.